createdAt,value
2023-04-14T00:00:21.430Z,19555.75
2023-04-14T00:02:49.637Z,19561.84
2023-04-14T00:05:17.994Z,19509.00
2023-04-14T00:07:46.597Z,19549.63
2023-04-14T00:10:14.710Z,19561.84
2023-04-14T00:12:42.823Z,19541.50
2023-04-14T00:15:12.123Z,19533.38
2023-04-14T00:17:41.583Z,19549.63
2023-04-14T00:20:11.105Z,19537.44
2023-04-14T00:22:39.310Z,19578.09
2023-04-14T00:25:08.089Z,19543.53
2023-04-14T00:27:36.217Z,19521.19
2023-04-14T00:30:05.239Z,19533.38
2023-04-14T00:32:33.410Z,19529.31
2023-04-14T00:35:03.619Z,19545.56
2023-04-14T00:37:31.816Z,19537.44
2023-04-14T00:39:59.899Z,19506.97
2023-04-14T00:42:28.022Z,19545.56
2023-04-14T00:44:56.147Z,19519.16
2023-04-14T00:47:24.460Z,19511.03
2023-04-14T00:49:52.980Z,19492.75
2023-04-14T00:52:24.600Z,19504.94
2023-04-14T00:54:52.916Z,19509.00
2023-04-14T00:57:21.260Z,19500.88
2023-04-14T00:59:49.510Z,19521.19
2023-04-14T01:02:17.724Z,19504.94
2023-04-14T01:04:54.330Z,19490.72
2023-04-14T01:07:28.184Z,19519.16
2023-04-14T01:09:58.315Z,19492.75
2023-04-14T01:12:56.238Z,19496.81
2023-04-14T01:15:34.527Z,19502.91
2023-04-14T01:18:15.856Z,19488.69
2023-04-14T01:20:51.185Z,19533.38
2023-04-14T01:23:27.379Z,19488.69
2023-04-14T01:26:21.557Z,19496.81
2023-04-14T01:29:53.360Z,19468.34
2023-04-14T01:32:28.319Z,19486.66
2023-04-14T01:35:05.662Z,19513.06
2023-04-14T01:37:42.329Z,19500.88
2023-04-14T01:40:16.720Z,19517.13
2023-04-14T01:42:50.917Z,19498.84
2023-04-14T01:45:25.659Z,19506.97
2023-04-14T01:47:56.857Z,19478.50
2023-04-14T01:50:28.613Z,19484.59
2023-04-14T01:52:58.828Z,19504.94
2023-04-14T01:55:31.958Z,19519.16
2023-04-14T01:58:03.649Z,19539.47
2023-04-14T02:00:33.109Z,19506.97
2023-04-14T02:03:06.248Z,19513.06
2023-04-14T02:05:39.325Z,19549.63
2023-04-14T02:08:13.491Z,19498.84
2023-04-14T02:10:46.882Z,19517.13
2023-04-14T02:13:17.786Z,19500.88
2023-04-14T02:15:49.026Z,19543.53
2023-04-14T02:18:23.151Z,19555.75
2023-04-14T02:20:55.018Z,19541.50
2023-04-14T02:23:23.356Z,19533.38
2023-04-14T02:25:56.785Z,19504.94
2023-04-14T02:28:31.184Z,19553.72
2023-04-14T02:31:04.490Z,19504.94
2023-04-14T02:33:39.390Z,19537.44
2023-04-14T02:36:17.926Z,19488.69
2023-04-14T02:38:53.338Z,19484.59
2023-04-14T02:41:26.374Z,19515.09
2023-04-14T02:44:04.988Z,19547.59
2023-04-14T02:46:38.514Z,19480.53
2023-04-14T02:49:14.432Z,19502.91
2023-04-14T02:51:46.429Z,19519.16
2023-04-14T02:54:16.366Z,19541.50
2023-04-14T02:56:45.410Z,19511.03
2023-04-14T02:59:14.684Z,19488.69
2023-04-14T03:01:44.606Z,19478.50
2023-04-14T03:04:16.384Z,19509.00
2023-04-14T03:06:46.035Z,19504.94
2023-04-14T03:09:15.914Z,19500.88
2023-04-14T03:11:46.222Z,19486.66
2023-04-14T03:14:15.577Z,19486.66
2023-04-14T03:16:44.664Z,19456.16
2023-04-14T03:19:15.753Z,19470.38
2023-04-14T03:21:44.272Z,19486.66
2023-04-14T03:24:15.589Z,19474.44
2023-04-14T03:26:47.090Z,19427.72
2023-04-14T03:29:19.188Z,19472.41
2023-04-14T03:31:48.938Z,19458.19
2023-04-14T03:34:21.470Z,19474.44
2023-04-14T03:36:54.488Z,19446.00
2023-04-14T03:39:27.294Z,19446.00
2023-04-14T03:41:58.079Z,19484.59
2023-04-14T03:44:31.936Z,19470.38
2023-04-14T03:47:03.467Z,19472.41
2023-04-14T03:49:36.413Z,19433.81
2023-04-14T03:52:13.618Z,19452.09
2023-04-14T03:54:44.978Z,19439.91
2023-04-14T03:57:17.707Z,19448.03
2023-04-14T03:59:50.547Z,19415.50
2023-04-14T04:02:20.682Z,19454.13
2023-04-14T04:04:51.535Z,19437.88
2023-04-14T04:07:22.328Z,19423.66
2023-04-14T04:09:52.607Z,19458.19
2023-04-14T04:12:23.692Z,19439.91
2023-04-14T04:14:51.904Z,19480.53
2023-04-14T04:17:24.649Z,19456.16
2023-04-14T04:19:58.440Z,19468.34
2023-04-14T04:22:29.528Z,19417.56
2023-04-14T04:24:58.983Z,19429.75
2023-04-14T04:27:28.676Z,19446.00
2023-04-14T04:29:57.086Z,19448.03
2023-04-14T04:32:25.609Z,19435.84
2023-04-14T04:34:56.672Z,19464.28
2023-04-14T04:37:28.670Z,19443.97
2023-04-14T04:39:58.838Z,19441.94
2023-04-14T04:42:27.050Z,19427.72
2023-04-14T04:44:55.233Z,19454.13
2023-04-14T04:47:23.399Z,19441.94
2023-04-14T04:49:51.573Z,19488.69
2023-04-14T04:52:20.988Z,19466.31
2023-04-14T04:54:52.325Z,19476.47
2023-04-14T04:57:20.524Z,19482.56
2023-04-14T04:59:48.914Z,19468.34
2023-04-14T05:02:17.403Z,19454.13
2023-04-14T05:04:45.721Z,19468.34
2023-04-14T05:07:13.856Z,19484.59
2023-04-14T05:09:43.355Z,19450.06
2023-04-14T05:12:11.841Z,19474.44
2023-04-14T05:14:39.946Z,19458.19
2023-04-14T05:17:08.076Z,19476.47
2023-04-14T05:19:36.345Z,19472.41
2023-04-14T05:22:04.483Z,19490.72
2023-04-14T05:24:32.595Z,19482.56
2023-04-14T05:27:13.695Z,19500.88
2023-04-14T05:29:43.023Z,19496.81
2023-04-14T05:32:12.844Z,19537.44
2023-04-14T05:34:41.080Z,19545.56
2023-04-14T05:37:09.248Z,19545.56
2023-04-14T05:39:37.545Z,19519.16
2023-04-14T05:42:07.115Z,19529.31
2023-04-14T05:44:35.215Z,19525.25
2023-04-14T05:47:03.778Z,19533.38
2023-04-14T05:49:32.354Z,19569.97
2023-04-14T05:52:00.653Z,19535.41
2023-04-14T05:54:28.749Z,19529.31
2023-04-14T05:56:57.609Z,19535.41
2023-04-14T05:59:27.269Z,19541.50
2023-04-14T06:01:55.534Z,19541.50
2023-04-14T06:04:24.006Z,19555.75
2023-04-14T06:06:52.504Z,19557.78
2023-04-14T06:09:20.658Z,19574.03
2023-04-14T06:11:48.753Z,19588.25
2023-04-14T06:14:16.920Z,19600.44
2023-04-14T06:16:46.469Z,19598.41
2023-04-14T06:19:14.625Z,19567.94
2023-04-14T06:21:42.766Z,19563.88
2023-04-14T06:24:11.006Z,19578.09
2023-04-14T06:26:39.114Z,19559.81
2023-04-14T06:29:07.905Z,19600.44
2023-04-14T06:31:36.373Z,19578.09
2023-04-14T06:34:05.872Z,19586.22
2023-04-14T06:36:33.986Z,19610.59
2023-04-14T06:39:02.731Z,19612.63
2023-04-14T06:41:30.871Z,19630.94
2023-04-14T06:43:58.940Z,19596.38
2023-04-14T06:46:27.092Z,19600.44
2023-04-14T06:48:55.299Z,19651.25
2023-04-14T06:51:24.679Z,19645.16
2023-04-14T06:53:52.690Z,19598.41
2023-04-14T06:56:20.817Z,19618.75
2023-04-14T06:58:48.886Z,19643.13
2023-04-14T07:01:17.107Z,19628.91
2023-04-14T07:03:45.677Z,19691.91
2023-04-14T07:06:17.118Z,19659.38
2023-04-14T07:08:46.896Z,19704.09
2023-04-14T07:11:14.968Z,19671.56
2023-04-14T07:13:43.230Z,19683.78
2023-04-14T07:16:11.333Z,19673.59
2023-04-14T07:18:39.616Z,19663.44
2023-04-14T07:21:07.896Z,19669.53
2023-04-14T07:23:36.050Z,19677.66
2023-04-14T07:26:06.062Z,19687.84
2023-04-14T07:28:34.378Z,19716.28
2023-04-14T07:31:09.843Z,19687.84
2023-04-14T07:33:38.384Z,19685.81
2023-04-14T07:36:07.174Z,19667.50
2023-04-14T07:38:37.038Z,19704.09
2023-04-14T07:41:08.252Z,19728.47
2023-04-14T07:43:36.353Z,19724.41
2023-04-14T07:46:05.798Z,19706.13
2023-04-14T07:48:34.614Z,19734.56
2023-04-14T07:51:03.208Z,19695.97
2023-04-14T07:53:32.115Z,19738.66
2023-04-14T07:56:00.862Z,19716.28
2023-04-14T07:58:30.282Z,19722.38
2023-04-14T08:00:58.601Z,19706.13
2023-04-14T08:03:26.950Z,19728.47
2023-04-14T08:05:55.347Z,19742.72
2023-04-14T08:08:23.603Z,19720.34
2023-04-14T08:10:51.777Z,19752.88
2023-04-14T08:13:19.853Z,19736.59
2023-04-14T08:15:49.340Z,19773.19
2023-04-14T08:18:18.435Z,19813.84
2023-04-14T08:20:46.522Z,19789.44
2023-04-14T08:23:14.588Z,19789.44
2023-04-14T08:25:43.242Z,19783.34
2023-04-14T08:28:11.273Z,19807.75
2023-04-14T08:30:39.544Z,19838.22
2023-04-14T08:33:08.980Z,19864.66
2023-04-14T08:35:42.293Z,19826.03
2023-04-14T08:38:11.455Z,19860.59
2023-04-14T08:40:42.223Z,19815.88
2023-04-14T08:43:13.907Z,19828.06
2023-04-14T08:45:44.431Z,19876.84
2023-04-14T08:48:20.426Z,19870.75
2023-04-14T08:51:01.243Z,19821.97
2023-04-14T08:53:33.424Z,19858.56
2023-04-14T08:56:05.969Z,19858.56
2023-04-14T08:58:34.049Z,19887.00
2023-04-14T09:01:04.432Z,19862.63
2023-04-14T09:03:35.689Z,19935.78
2023-04-14T09:06:05.262Z,19933.75
2023-04-14T09:08:34.692Z,19978.47
2023-04-14T09:11:03.509Z,19972.38
2023-04-14T09:13:32.357Z,19962.19
2023-04-14T09:16:01.684Z,19992.69
2023-04-14T09:18:31.417Z,19992.69
2023-04-14T09:21:31.264Z,19978.47
2023-04-14T09:23:52.502Z,19964.25
2023-04-14T09:26:20.654Z,20013.00
2023-04-14T09:28:48.690Z,19994.72
2023-04-14T09:31:17.429Z,20037.41
2023-04-14T09:33:50.182Z,20025.22
2023-04-14T09:36:25.793Z,20049.59
2023-04-14T09:38:54.046Z,20035.38
2023-04-14T09:41:25.874Z,20090.25
2023-04-14T09:43:54.205Z,20090.25
2023-04-14T09:46:22.526Z,20061.78
2023-04-14T09:48:55.515Z,20088.22
2023-04-14T09:51:28.928Z,20110.56
2023-04-14T09:54:04.868Z,20134.97
2023-04-14T09:56:33.594Z,20143.09
2023-04-14T09:59:03.822Z,20141.06
2023-04-14T10:01:34.884Z,20130.91
2023-04-14T10:04:03.904Z,20057.72
2023-04-14T10:06:33.655Z,20065.84
2023-04-14T10:09:02.465Z,20104.47
2023-04-14T10:11:33.433Z,20157.31
2023-04-14T10:14:04.623Z,20139.03
2023-04-14T10:16:33.628Z,20163.41
2023-04-14T10:19:02.687Z,20141.06
2023-04-14T10:21:33.690Z,20159.34
2023-04-14T10:24:02.773Z,20053.66
2023-04-14T10:26:31.233Z,19988.63
2023-04-14T10:29:02.048Z,20000.81
2023-04-14T10:31:35.728Z,19968.31
2023-04-14T10:34:10.597Z,19962.19
2023-04-14T10:36:40.754Z,19958.13
2023-04-14T10:39:10.968Z,19943.91
2023-04-14T10:41:48.265Z,19907.31
2023-04-14T10:44:29.316Z,19889.03
2023-04-14T10:46:58.340Z,19889.03
2023-04-14T10:49:31.593Z,19846.34
2023-04-14T10:52:03.666Z,19813.84
2023-04-14T10:54:50.986Z,19789.44
2023-04-14T10:57:20.037Z,19734.56
2023-04-14T10:59:49.000Z,19761.00
2023-04-14T11:02:28.760Z,19752.88
2023-04-14T11:05:06.430Z,19746.78
2023-04-14T11:07:45.791Z,19728.47
2023-04-14T11:10:37.122Z,19720.34
2023-04-14T11:13:07.728Z,19758.97
2023-04-14T11:15:50.597Z,19791.47
2023-04-14T11:18:22.803Z,19821.97
2023-04-14T11:20:53.875Z,19807.75
2023-04-14T11:23:29.669Z,19842.28
2023-04-14T11:25:58.526Z,19848.38
2023-04-14T11:28:31.317Z,19899.19
2023-04-14T11:31:01.842Z,19880.91
2023-04-14T11:33:30.948Z,19880.91
2023-04-14T11:35:59.807Z,19911.41
2023-04-14T11:38:29.690Z,19895.13
2023-04-14T11:40:57.988Z,19923.59
2023-04-14T11:43:26.388Z,19921.56
2023-04-14T11:45:54.639Z,19919.53
2023-04-14T11:48:22.879Z,19947.97
2023-04-14T11:50:52.108Z,19931.72
2023-04-14T11:53:21.123Z,19919.53
2023-04-14T11:55:53.866Z,19919.53
2023-04-14T11:58:24.523Z,19895.13
2023-04-14T12:00:55.950Z,19909.34
2023-04-14T12:03:29.195Z,19992.69
2023-04-14T12:05:59.789Z,19998.78
2023-04-14T12:08:32.263Z,19996.75
2023-04-14T12:11:14.153Z,20035.38
2023-04-14T12:13:43.224Z,20017.09
2023-04-14T12:16:12.145Z,20017.09
2023-04-14T12:18:40.620Z,20023.19
2023-04-14T12:21:11.794Z,20010.97
2023-04-14T12:23:41.300Z,20069.94
2023-04-14T12:26:13.075Z,20035.38
2023-04-14T12:28:42.227Z,20063.81
2023-04-14T12:31:12.215Z,19974.41
2023-04-14T12:33:40.417Z,19919.53
2023-04-14T12:36:13.431Z,19915.47
2023-04-14T12:38:41.659Z,19939.84
2023-04-14T12:41:10.718Z,19929.69
2023-04-14T12:43:41.737Z,19950.00
2023-04-14T12:46:09.993Z,19976.44
2023-04-14T12:48:45.107Z,20023.19
2023-04-14T12:51:15.561Z,20008.94
2023-04-14T12:53:45.556Z,19941.88
2023-04-14T12:56:16.324Z,19931.72
2023-04-14T12:58:47.775Z,19988.63
2023-04-14T13:01:18.319Z,20004.88
2023-04-14T13:03:50.300Z,19992.69
2023-04-14T13:06:20.982Z,19996.75
2023-04-14T13:08:50.817Z,20008.94
2023-04-14T13:11:20.933Z,20039.44
2023-04-14T13:13:51.118Z,20017.09
2023-04-14T13:16:20.727Z,20037.41
2023-04-14T13:18:49.891Z,20019.13
2023-04-14T13:21:18.453Z,19966.28
2023-04-14T13:23:46.663Z,19958.13
2023-04-14T13:26:14.789Z,19992.69
2023-04-14T13:28:42.904Z,19998.78
2023-04-14T13:31:13.557Z,20021.16
2023-04-14T13:33:42.046Z,19921.56
2023-04-14T13:36:10.587Z,20027.25
2023-04-14T13:38:38.737Z,20039.44
2023-04-14T13:41:07.131Z,20057.72
2023-04-14T13:43:35.308Z,20051.63
2023-04-14T13:46:03.493Z,20061.78
2023-04-14T13:48:33.745Z,20025.22
2023-04-14T13:51:02.169Z,20021.16
2023-04-14T13:53:30.988Z,20031.31
2023-04-14T13:55:59.140Z,20027.25
2023-04-14T13:58:27.456Z,20045.53
2023-04-14T14:00:56.295Z,20033.34
2023-04-14T14:03:25.706Z,20057.72
2023-04-14T14:05:55.997Z,20031.31
2023-04-14T14:08:24.148Z,19982.53
2023-04-14T14:10:54.104Z,19996.75
2023-04-14T14:13:22.380Z,20002.84
2023-04-14T14:15:50.515Z,20002.84
2023-04-14T14:18:18.661Z,20002.84
2023-04-14T14:20:47.053Z,19976.44
2023-04-14T14:23:16.724Z,19976.44
2023-04-14T14:25:46.627Z,20006.91
2023-04-14T14:28:14.786Z,20037.41
2023-04-14T14:30:42.978Z,20019.13
2023-04-14T14:33:11.064Z,19996.75
2023-04-14T14:35:39.593Z,19954.06
2023-04-14T14:38:07.799Z,19927.66
2023-04-14T14:40:37.396Z,19913.44
2023-04-14T14:43:05.588Z,19939.84
2023-04-14T14:45:33.753Z,19905.28
2023-04-14T14:48:02.465Z,19935.78
2023-04-14T14:50:30.705Z,19913.44
2023-04-14T14:52:58.741Z,19870.75
2023-04-14T14:55:27.180Z,19866.69
2023-04-14T14:57:56.715Z,19826.03
2023-04-14T15:00:24.945Z,19830.09
2023-04-14T15:02:53.447Z,19826.03
2023-04-14T15:05:21.744Z,19840.25
2023-04-14T15:07:50.434Z,19821.97
2023-04-14T15:10:18.866Z,19821.97
2023-04-14T15:12:47.056Z,19878.88
2023-04-14T15:15:19.021Z,19826.03
2023-04-14T15:17:47.560Z,19848.38
2023-04-14T15:20:16.073Z,19828.06
2023-04-14T15:22:44.306Z,19868.72
2023-04-14T15:25:12.496Z,19813.84
2023-04-14T15:27:40.623Z,19828.06
2023-04-14T15:30:10.445Z,19771.16
2023-04-14T15:32:40.022Z,19805.72
2023-04-14T15:35:09.093Z,19799.63
2023-04-14T15:37:37.224Z,19763.03
2023-04-14T15:40:05.995Z,19789.44
2023-04-14T15:42:34.104Z,19797.59
2023-04-14T15:45:02.283Z,19758.97
2023-04-14T15:47:31.100Z,19756.94
2023-04-14T15:50:09.545Z,19744.75
2023-04-14T15:52:39.554Z,19736.59
2023-04-14T15:55:10.089Z,19746.78
2023-04-14T15:57:38.293Z,19710.19
2023-04-14T16:00:08.358Z,19728.47
2023-04-14T16:02:36.917Z,19704.09
2023-04-14T16:05:08.068Z,19710.19
2023-04-14T16:07:36.307Z,19704.09
2023-04-14T16:10:05.507Z,19716.28
2023-04-14T16:12:35.139Z,19750.84
2023-04-14T16:15:03.600Z,19720.34
2023-04-14T16:17:32.049Z,19726.44
2023-04-14T16:20:01.596Z,19732.53
2023-04-14T16:22:31.523Z,19687.84
2023-04-14T16:24:59.662Z,19714.25
2023-04-14T16:27:27.789Z,19675.63
2023-04-14T16:29:55.885Z,19728.47
2023-04-14T16:32:24.844Z,19765.06
2023-04-14T16:34:52.993Z,19712.22
2023-04-14T16:37:25.508Z,19730.50
2023-04-14T16:39:56.873Z,19683.78
2023-04-14T16:42:26.205Z,19702.06
2023-04-14T16:44:56.254Z,19720.34
2023-04-14T16:47:24.799Z,19730.50
2023-04-14T16:49:52.969Z,19710.19
2023-04-14T16:52:21.367Z,19673.59
2023-04-14T16:54:49.505Z,19661.41
2023-04-14T16:57:19.594Z,19683.78
2023-04-14T16:59:48.630Z,19651.25
2023-04-14T17:02:17.015Z,19632.97
2023-04-14T17:04:45.707Z,19610.59
2023-04-14T17:07:14.043Z,19616.72
2023-04-14T17:09:42.750Z,19569.97
2023-04-14T17:12:10.907Z,19602.47
2023-04-14T17:14:40.394Z,19590.28
2023-04-14T17:17:08.537Z,19622.81
2023-04-14T17:19:36.642Z,19574.03
2023-04-14T17:22:04.720Z,19561.84
2023-04-14T17:24:32.823Z,19547.59
2023-04-14T17:27:00.977Z,19574.03
2023-04-14T17:29:29.791Z,19537.44
2023-04-14T17:32:01.007Z,19541.50
2023-04-14T17:34:29.694Z,19551.69
2023-04-14T17:36:58.760Z,19545.56
2023-04-14T17:39:28.284Z,19527.28
2023-04-14T17:41:58.031Z,19533.38
2023-04-14T17:44:33.270Z,19533.38
2023-04-14T17:47:03.668Z,19543.53
2023-04-14T17:49:33.614Z,19545.56
2023-04-14T17:52:02.065Z,19527.28
2023-04-14T17:54:31.083Z,19511.03
2023-04-14T17:56:59.197Z,19509.00
2023-04-14T17:59:27.429Z,19541.50
2023-04-14T18:01:55.570Z,19515.09
2023-04-14T18:04:25.540Z,19502.91
2023-04-14T18:06:53.754Z,19502.91
2023-04-14T18:09:22.133Z,19435.84
2023-04-14T18:11:50.270Z,19492.75
2023-04-14T18:14:18.392Z,19490.72
2023-04-14T18:16:46.814Z,19478.50
2023-04-14T18:19:15.634Z,19527.28
2023-04-14T18:21:46.745Z,19521.19
2023-04-14T18:26:45.950Z,19500.88
2023-04-14T18:29:14.050Z,19468.34
2023-04-14T18:31:42.654Z,19452.09
2023-04-14T18:34:12.535Z,19439.91
2023-04-14T18:36:40.712Z,19458.19
2023-04-14T18:39:10.334Z,19452.09
2023-04-14T18:41:38.648Z,19450.06
2023-04-14T18:44:07.478Z,19454.13
2023-04-14T18:46:35.967Z,19454.13
2023-04-14T18:49:04.333Z,19452.09
2023-04-14T18:51:32.631Z,19470.38
2023-04-14T18:54:00.950Z,19460.22
2023-04-14T18:56:30.718Z,19452.09
2023-04-14T18:58:59.949Z,19437.88
2023-04-14T19:01:28.543Z,19466.31
2023-04-14T19:03:57.635Z,19433.81
2023-04-14T19:06:26.282Z,19439.91
2023-04-14T19:08:54.505Z,19454.13
2023-04-14T19:11:22.639Z,19425.69
2023-04-14T19:13:53.965Z,19427.72
2023-04-14T19:16:22.572Z,19435.84
2023-04-14T19:18:52.360Z,19452.09
2023-04-14T19:21:20.486Z,19443.97
2023-04-14T19:23:48.812Z,19401.28
2023-04-14T19:26:18.231Z,19423.66
2023-04-14T19:28:46.508Z,19441.94
2023-04-14T19:31:17.322Z,19446.00
2023-04-14T19:33:45.518Z,19415.50
2023-04-14T19:36:15.125Z,19429.75
2023-04-14T19:38:44.037Z,19417.56
2023-04-14T19:41:12.533Z,19441.94
2023-04-14T19:43:40.734Z,19419.59
2023-04-14T19:46:10.423Z,19387.06
2023-04-14T19:48:40.471Z,19383.00
2023-04-14T19:51:08.971Z,19413.47
2023-04-14T19:53:37.405Z,19403.31
2023-04-14T19:56:07.066Z,19380.97
2023-04-14T19:58:36.320Z,19397.22
2023-04-14T20:01:05.658Z,19378.94
2023-04-14T20:03:34.833Z,19415.50
2023-04-14T20:06:04.651Z,19423.66
2023-04-14T20:08:33.130Z,19403.31
2023-04-14T20:11:01.558Z,19399.25
2023-04-14T20:13:32.066Z,19407.38
2023-04-14T20:16:01.454Z,19411.44
2023-04-14T20:18:29.729Z,19427.72
2023-04-14T20:20:58.887Z,19385.03
2023-04-14T20:23:28.776Z,19415.50
2023-04-14T20:25:56.895Z,19401.28
2023-04-14T20:28:26.280Z,19405.34
2023-04-14T20:30:55.802Z,19443.97
2023-04-14T20:33:24.760Z,19419.59
2023-04-14T20:35:54.085Z,19407.38
2023-04-14T20:38:23.430Z,19403.31
2023-04-14T20:40:54.710Z,19405.34
2023-04-14T20:43:23.278Z,19431.78
2023-04-14T20:45:53.035Z,19417.56
2023-04-14T20:48:21.450Z,19409.41
2023-04-14T20:50:50.402Z,19423.66
2023-04-14T20:53:21.856Z,19411.44
2023-04-14T20:55:50.928Z,19395.19
2023-04-14T20:58:20.410Z,19417.56
2023-04-14T21:00:49.089Z,19391.13
2023-04-14T21:03:17.357Z,19415.50
2023-04-14T21:05:46.203Z,19407.38
2023-04-14T21:08:14.308Z,19405.34
2023-04-14T21:11:02.254Z,19415.50
2023-04-14T21:15:31.212Z,19427.72
2023-04-14T21:16:20.177Z,19387.06
2023-04-14T21:18:48.256Z,19419.59
2023-04-14T21:21:16.726Z,19389.09
2023-04-14T21:23:44.847Z,19425.69
2023-04-14T21:26:13.213Z,19364.72
2023-04-14T21:28:43.077Z,19405.34
2023-04-14T21:31:11.545Z,19399.25
2023-04-14T21:33:41.554Z,19411.44
2023-04-14T21:36:10.665Z,19411.44
2023-04-14T21:38:39.554Z,19387.06
2023-04-14T21:41:09.390Z,19360.66
2023-04-14T21:43:38.565Z,19391.13
2023-04-14T21:46:08.268Z,19391.13
2023-04-14T21:48:36.488Z,19405.34
2023-04-14T21:51:05.124Z,19409.41
2023-04-14T21:53:33.634Z,19374.88
2023-04-14T21:56:09.515Z,19411.44
2023-04-14T21:58:40.202Z,19419.59
2023-04-14T22:01:10.737Z,19403.31
2023-04-14T22:03:41.495Z,19395.19
2023-04-14T22:06:11.218Z,19395.19
2023-04-14T22:08:40.405Z,19397.22
2023-04-14T22:11:09.008Z,19403.31
2023-04-14T22:13:37.201Z,19421.63
2023-04-14T22:16:05.781Z,19417.56
2023-04-14T22:18:35.840Z,19395.19
2023-04-14T22:21:04.811Z,19387.06
2023-04-14T22:23:33.173Z,19403.31
2023-04-14T22:26:01.998Z,19405.34
2023-04-14T22:28:30.457Z,19362.69
2023-04-14T22:30:58.674Z,19383.00
2023-04-14T22:33:27.278Z,19389.09
2023-04-14T22:35:56.881Z,19391.13
2023-04-14T22:38:25.022Z,19415.50
2023-04-14T22:40:54.384Z,19385.03
2023-04-14T22:43:22.677Z,19389.09
2023-04-14T22:45:51.110Z,19407.38
2023-04-14T22:48:19.437Z,19358.63
2023-04-14T22:50:47.609Z,19385.03
2023-04-14T22:53:17.097Z,19393.16
2023-04-14T22:55:45.249Z,19391.13
2023-04-14T22:58:16.768Z,19389.09
2023-04-14T23:00:45.649Z,19409.41
2023-04-14T23:03:14.001Z,19407.38
2023-04-14T23:05:42.744Z,19389.09
2023-04-14T23:08:10.862Z,19397.22
2023-04-14T23:10:40.311Z,19385.03
2023-04-14T23:13:08.418Z,19397.22
2023-04-14T23:15:36.741Z,19368.78
2023-04-14T23:18:05.544Z,19411.44
2023-04-14T23:20:33.722Z,19391.13
2023-04-14T23:23:02.639Z,19401.28
2023-04-14T23:25:30.893Z,19411.44
2023-04-14T23:28:00.376Z,19423.66
2023-04-14T23:30:28.766Z,19419.59
2023-04-14T23:32:56.940Z,19401.28
2023-04-14T23:35:25.141Z,19411.44
2023-04-14T23:37:53.249Z,19372.84
2023-04-14T23:40:22.502Z,19403.31
2023-04-14T23:42:50.624Z,19429.75
2023-04-14T23:45:20.231Z,19360.66
2023-04-14T23:47:48.379Z,19391.13
2023-04-14T23:50:16.605Z,19395.19
2023-04-14T23:52:45.017Z,19391.13
2023-04-14T23:55:13.478Z,19421.63
2023-04-14T23:57:42.199Z,19374.88
